« Back
NWS Peachtree City, Ga » Text Product » CSG Terminal Aerodrome Forecast


Printer-friendly Version
Current Version              Previous Versions:   1  2  3  4  5  6  7  8  9  

Terminal Aerodrome Forecast

932
FTUS42 KFFC 290520
TAFCSG
TAF
KCSG 290520Z 2906/3006 09004KT P6SM SCT015 BKN060 OVC250
     FM290900 10005KT 6SM BR VCSH BKN007 BKN040 OVC150
     FM291400 12006KT P6SM -SHRA SCT008 BKN025 OVC150
     FM291800 12007KT P6SM -SHRA SCT030 BKN060 OVC150
     FM300000 09004KT P6SM VCSH BKN040 OVC100=

USA.gov is the U.S. government's official web portal to all federal, state and local government web resources and services.